sensor_id;sensor_type;location;lat;lon;timestamp;pressure;altitude;pressure_sealevel;temperature;humidity
49063;BME280;34876;51.464;-0.150;2022-08-19T00:00:28;101254.45;;;25.93;45.76
49063;BME280;34876;51.464;-0.150;2022-08-19T00:10:04;101257.60;;;25.94;45.79
49063;BME280;34876;51.464;-0.150;2022-08-19T00:18:16;101255.92;;;25.92;45.86
49063;BME280;34876;51.464;-0.150;2022-08-19T00:26:44;101250.97;;;25.92;45.96
49063;BME280;34876;51.464;-0.150;2022-08-19T00:34:50;101245.53;;;25.91;46.04
49063;BME280;34876;51.464;-0.150;2022-08-19T00:42:33;101242.27;;;25.90;46.14
49063;BME280;34876;51.464;-0.150;2022-08-19T00:50:02;101234.07;;;25.90;46.16
49063;BME280;34876;51.464;-0.150;2022-08-19T00:57:04;101230.01;;;25.91;46.19
49063;BME280;34876;51.464;-0.150;2022-08-19T01:05:18;101223.36;;;25.89;46.25
49063;BME280;34876;51.464;-0.150;2022-08-19T01:12:58;101226.37;;;25.82;46.57
49063;BME280;34876;51.464;-0.150;2022-08-19T01:21:08;101223.57;;;25.90;46.31
49063;BME280;34876;51.464;-0.150;2022-08-19T01:28:45;101221.68;;;25.93;46.27
49063;BME280;34876;51.464;-0.150;2022-08-19T01:36:28;101227.43;;;25.92;46.35
49063;BME280;34876;51.464;-0.150;2022-08-19T01:44:30;101222.50;;;25.86;46.55
49063;BME280;34876;51.464;-0.150;2022-08-19T01:52:12;101212.72;;;25.83;46.68
49063;BME280;34876;51.464;-0.150;2022-08-19T02:00:10;101222.46;;;25.82;46.69
49063;BME280;34876;51.464;-0.150;2022-08-19T02:08:07;101216.49;;;25.81;46.74
49063;BME280;34876;51.464;-0.150;2022-08-19T02:16:42;101221.90;;;25.80;46.77
49063;BME280;34876;51.464;-0.150;2022-08-19T02:24:22;101221.73;;;25.82;46.73
49063;BME280;34876;51.464;-0.150;2022-08-19T02:31:58;101220.43;;;25.79;46.84
49063;BME280;34876;51.464;-0.150;2022-08-19T02:40:32;101220.41;;;25.80;46.82
49063;BME280;34876;51.464;-0.150;2022-08-19T02:47:34;101223.35;;;25.81;46.81
49063;BME280;34876;51.464;-0.150;2022-08-19T02:55:32;101227.16;;;25.82;46.80
49063;BME280;34876;51.464;-0.150;2022-08-19T03:02:43;101224.09;;;25.82;46.83
49063;BME280;34876;51.464;-0.150;2022-08-19T03:10:31;101228.34;;;25.80;46.87
49063;BME280;34876;51.464;-0.150;2022-08-19T03:18:34;101235.05;;;25.81;46.88
49063;BME280;34876;51.464;-0.150;2022-08-19T03:26:54;101228.44;;;25.79;46.94
49063;BME280;34876;51.464;-0.150;2022-08-19T03:34:32;101227.46;;;25.80;46.89
49063;BME280;34876;51.464;-0.150;2022-08-19T03:41:45;101227.62;;;25.75;47.15
49063;BME280;34876;51.464;-0.150;2022-08-19T03:49:57;101239.51;;;25.79;46.96
49063;BME280;34876;51.464;-0.150;2022-08-19T03:57:26;101249.21;;;25.76;47.12
49063;BME280;34876;51.464;-0.150;2022-08-19T04:05:28;101243.75;;;25.80;47.13
49063;BME280;34876;51.464;-0.150;2022-08-19T04:12:41;101243.40;;;25.80;47.28
49063;BME280;34876;51.464;-0.150;2022-08-19T04:20:41;101235.53;;;25.80;47.35
49063;BME280;34876;51.464;-0.150;2022-08-19T04:28:17;101243.69;;;25.81;47.51
49063;BME280;34876;51.464;-0.150;2022-08-19T04:35:27;101239.30;;;25.80;47.56
49063;BME280;34876;51.464;-0.150;2022-08-19T04:43:17;101250.64;;;25.79;47.67
49063;BME280;34876;51.464;-0.150;2022-08-19T04:51:06;101258.70;;;25.78;47.82
49063;BME280;34876;51.464;-0.150;2022-08-19T04:58:43;101264.04;;;25.74;47.94
49063;BME280;34876;51.464;-0.150;2022-08-19T05:05:38;101269.23;;;25.75;47.91
49063;BME280;34876;51.464;-0.150;2022-08-19T05:13:38;101270.63;;;25.76;48.01
49063;BME280;34876;51.464;-0.150;2022-08-19T05:20:53;101277.46;;;25.76;48.15
49063;BME280;34876;51.464;-0.150;2022-08-19T05:29:05;101281.15;;;25.77;48.12
49063;BME280;34876;51.464;-0.150;2022-08-19T05:36:44;101284.41;;;25.78;48.15
49063;BME280;34876;51.464;-0.150;2022-08-19T05:44:35;101287.37;;;25.78;48.17
49063;BME280;34876;51.464;-0.150;2022-08-19T05:52:21;101288.97;;;25.79;48.16
49063;BME280;34876;51.464;-0.150;2022-08-19T05:59:38;101292.11;;;25.76;48.26
49063;BME280;34876;51.464;-0.150;2022-08-19T06:07:05;101294.41;;;25.77;48.23
49063;BME280;34876;51.464;-0.150;2022-08-19T06:14:53;101304.84;;;25.77;48.24
49063;BME280;34876;51.464;-0.150;2022-08-19T06:22:47;101306.54;;;25.77;48.18
49063;BME280;34876;51.464;-0.150;2022-08-19T06:30:33;101306.84;;;25.79;48.18
49063;BME280;34876;51.464;-0.150;2022-08-19T06:37:31;101307.82;;;25.82;47.96
49063;BME280;34876;51.464;-0.150;2022-08-19T06:45:14;101321.32;;;25.84;48.05
49063;BME280;34876;51.464;-0.150;2022-08-19T06:53:06;101324.25;;;25.77;48.07
49063;BME280;34876;51.464;-0.150;2022-08-19T07:00:48;101326.08;;;25.76;48.10
49063;BME280;34876;51.464;-0.150;2022-08-19T07:08:05;101334.31;;;25.77;48.06
49063;BME280;34876;51.464;-0.150;2022-08-19T07:16:10;101341.93;;;25.88;47.72
49063;BME280;34876;51.464;-0.150;2022-08-19T07:24:55;101346.02;;;25.79;47.91
49063;BME280;34876;51.464;-0.150;2022-08-19T07:33:05;101347.79;;;25.79;47.88
49063;BME280;34876;51.464;-0.150;2022-08-19T07:41:17;101349.12;;;25.92;47.46
49063;BME280;34876;51.464;-0.150;2022-08-19T07:48:43;101343.61;;;25.82;47.64
49063;BME280;34876;51.464;-0.150;2022-08-19T07:56:48;101347.12;;;25.89;47.46
49063;BME280;34876;51.464;-0.150;2022-08-19T08:05:18;101347.40;;;25.92;47.32
49063;BME280;34876;51.464;-0.150;2022-08-19T08:12:36;101355.24;;;25.91;47.28
49063;BME280;34876;51.464;-0.150;2022-08-19T08:19:14;101358.86;;;25.89;47.24
49063;BME280;34876;51.464;-0.150;2022-08-19T08:27:18;101362.70;;;25.86;47.31
49063;BME280;34876;51.464;-0.150;2022-08-19T08:35:21;101369.00;;;25.84;47.28
49063;BME280;34876;51.464;-0.150;2022-08-19T08:43:40;101363.41;;;25.84;47.26
49063;BME280;34876;51.464;-0.150;2022-08-19T08:52:02;101364.19;;;25.96;46.86
49063;BME280;34876;51.464;-0.150;2022-08-19T09:00:19;101370.28;;;26.10;46.43
49063;BME280;34876;51.464;-0.150;2022-08-19T09:07:29;101365.89;;;26.91;44.38
49063;BME280;34876;51.464;-0.150;2022-08-19T09:15:25;101366.10;;;27.24;43.47
49063;BME280;34876;51.464;-0.150;2022-08-19T09:23:06;101362.68;;;27.35;43.08
49063;BME280;34876;51.464;-0.150;2022-08-19T09:31:22;101355.93;;;27.03;43.66
49063;BME280;34876;51.464;-0.150;2022-08-19T09:39:13;101353.09;;;27.21;43.23
49063;BME280;34876;51.464;-0.150;2022-08-19T09:46:05;101349.26;;;26.93;43.84
49063;BME280;34876;51.464;-0.150;2022-08-19T09:53:47;101354.74;;;26.65;44.23
49063;BME280;34876;51.464;-0.150;2022-08-19T10:01:00;101348.94;;;26.57;44.61
49063;BME280;34876;51.464;-0.150;2022-08-19T10:08:37;101354.59;;;26.49;44.84
49063;BME280;34876;51.464;-0.150;2022-08-19T10:16:26;101362.42;;;26.29;44.86
49063;BME280;34876;51.464;-0.150;2022-08-19T10:23:33;101366.48;;;26.18;45.52
49063;BME280;34876;51.464;-0.150;2022-08-19T10:32:08;101376.02;;;26.13;45.63
49063;BME280;34876;51.464;-0.150;2022-08-19T10:39:39;101379.62;;;26.15;45.56
49063;BME280;34876;51.464;-0.150;2022-08-19T10:47:15;101374.01;;;26.11;45.59
49063;BME280;34876;51.464;-0.150;2022-08-19T10:55:06;101375.47;;;26.11;45.56
49063;BME280;34876;51.464;-0.150;2022-08-19T11:02:20;101381.58;;;26.02;45.70
49063;BME280;34876;51.464;-0.150;2022-08-19T11:10:33;101377.69;;;26.05;45.59
49063;BME280;34876;51.464;-0.150;2022-08-19T11:18:42;101377.67;;;25.89;43.72
49063;BME280;34876;51.464;-0.150;2022-08-19T11:27:03;101389.97;;;26.13;44.58
49063;BME280;34876;51.464;-0.150;2022-08-19T11:34:56;101388.23;;;25.79;45.95
49063;BME280;34876;51.464;-0.150;2022-08-19T11:43:14;101388.88;;;26.00;45.36
49063;BME280;34876;51.464;-0.150;2022-08-19T11:51:22;101389.69;;;25.83;45.53
49063;BME280;34876;51.464;-0.150;2022-08-19T11:59:23;101389.85;;;25.81;43.03
49063;BME280;34876;51.464;-0.150;2022-08-19T12:07:00;101384.82;;;26.00;39.65
49063;BME280;34876;51.464;-0.150;2022-08-19T12:14:37;101390.38;;;25.85;41.75
49063;BME280;34876;51.464;-0.150;2022-08-19T12:22:34;101390.51;;;25.87;40.99
49063;BME280;34876;51.464;-0.150;2022-08-19T12:30:37;101392.38;;;25.98;44.59
49063;BME280;34876;51.464;-0.150;2022-08-19T12:37:57;101389.46;;;26.12;43.71
49063;BME280;34876;51.464;-0.150;2022-08-19T12:45:30;101386.81;;;26.02;44.27
49063;BME280;34876;51.464;-0.150;2022-08-19T12:52:43;101382.83;;;26.12;41.81
49063;BME280;34876;51.464;-0.150;2022-08-19T13:00:37;101396.93;;;26.16;44.14
49063;BME280;34876;51.464;-0.150;2022-08-19T13:08:34;101389.16;;;25.97;37.30
49063;BME280;34876;51.464;-0.150;2022-08-19T13:15:41;101379.27;;;26.23;43.92
49063;BME280;34876;51.464;-0.150;2022-08-19T13:23:36;101374.07;;;25.90;43.04
49063;BME280;34876;51.464;-0.150;2022-08-19T13:31:07;101374.34;;;25.85;38.61
49063;BME280;34876;51.464;-0.150;2022-08-19T13:38:46;101368.46;;;25.95;43.28
49063;BME280;34876;51.464;-0.150;2022-08-19T13:46:47;101372.74;;;26.21;43.60
49063;BME280;34876;51.464;-0.150;2022-08-19T13:54:04;101366.29;;;26.01;33.96
49063;BME280;34876;51.464;-0.150;2022-08-19T14:01:08;101363.02;;;25.19;42.45
49063;BME280;34876;51.464;-0.150;2022-08-19T14:09:26;101351.60;;;25.62;43.62
49063;BME280;34876;51.464;-0.150;2022-08-19T14:16:07;101356.45;;;25.80;34.68
49063;BME280;34876;51.464;-0.150;2022-08-19T14:24:10;101350.63;;;26.09;41.92
49063;BME280;34876;51.464;-0.150;2022-08-19T14:32:27;101348.73;;;25.71;44.00
49063;BME280;34876;51.464;-0.150;2022-08-19T14:39:40;101347.34;;;25.24;31.56
49063;BME280;34876;51.464;-0.150;2022-08-19T14:46:54;101356.70;;;25.81;42.20
49063;BME280;34876;51.464;-0.150;2022-08-19T14:54:57;101358.07;;;25.65;40.01
49063;BME280;34876;51.464;-0.150;2022-08-19T15:02:57;101354.97;;;25.71;34.20
49063;BME280;34876;51.464;-0.150;2022-08-19T15:10:47;101361.97;;;25.62;41.75
49063;BME280;34876;51.464;-0.150;2022-08-19T15:18:35;101364.38;;;25.84;43.39
49063;BME280;34876;51.464;-0.150;2022-08-19T15:25:31;101365.92;;;25.98;42.63
49063;BME280;34876;51.464;-0.150;2022-08-19T15:33:51;101365.29;;;25.92;33.72
49063;BME280;34876;51.464;-0.150;2022-08-19T15:41:32;101375.98;;;25.59;38.83
49063;BME280;34876;51.464;-0.150;2022-08-19T15:49:16;101383.69;;;25.22;39.46
49063;BME280;34876;51.464;-0.150;2022-08-19T15:56:41;101385.96;;;25.45;41.06
49063;BME280;34876;51.464;-0.150;2022-08-19T16:04:31;101393.22;;;25.71;43.75
49063;BME280;34876;51.464;-0.150;2022-08-19T16:12:47;101398.02;;;25.79;42.36
49063;BME280;34876;51.464;-0.150;2022-08-19T16:21:26;101417.60;;;25.77;43.24
49063;BME280;34876;51.464;-0.150;2022-08-19T16:28:48;101418.15;;;25.52;44.18
49063;BME280;34876;51.464;-0.150;2022-08-19T16:35:51;101420.03;;;25.80;41.06
49063;BME280;34876;51.464;-0.150;2022-08-19T16:43:21;101427.56;;;25.24;32.28
49063;BME280;34876;51.464;-0.150;2022-08-19T16:50:41;101425.17;;;25.36;43.58
49063;BME280;34876;51.464;-0.150;2022-08-19T16:58:14;101435.85;;;25.75;43.75
49063;BME280;34876;51.464;-0.150;2022-08-19T17:05:41;101446.88;;;25.48;43.53
49063;BME280;34876;51.464;-0.150;2022-08-19T17:13:28;101452.10;;;25.87;43.43
49063;BME280;34876;51.464;-0.150;2022-08-19T17:20:21;101457.89;;;25.72;41.70
49063;BME280;34876;51.464;-0.150;2022-08-19T17:28:37;101454.58;;;25.77;43.39
49063;BME280;34876;51.464;-0.150;2022-08-19T17:35:38;101463.08;;;25.09;44.11
49063;BME280;34876;51.464;-0.150;2022-08-19T17:42:21;101464.36;;;25.11;43.48
49063;BME280;34876;51.464;-0.150;2022-08-19T17:50:09;101463.18;;;25.67;43.65
49063;BME280;34876;51.464;-0.150;2022-08-19T17:57:18;101478.72;;;25.23;44.29
49063;BME280;34876;51.464;-0.150;2022-08-19T18:03:48;101480.56;;;25.48;43.67
49063;BME280;34876;51.464;-0.150;2022-08-19T18:11:54;101483.18;;;25.36;43.89
49063;BME280;34876;51.464;-0.150;2022-08-19T18:19:18;101480.84;;;25.42;34.94
49063;BME280;34876;51.464;-0.150;2022-08-19T18:27:05;101497.98;;;25.20;43.93
49063;BME280;34876;51.464;-0.150;2022-08-19T18:34:11;101506.77;;;25.12;44.07
49063;BME280;34876;51.464;-0.150;2022-08-19T18:41:28;101502.31;;;25.39;43.12
49063;BME280;34876;51.464;-0.150;2022-08-19T18:48:45;101514.83;;;25.62;43.50
49063;BME280;34876;51.464;-0.150;2022-08-19T18:56:55;101532.33;;;25.13;44.30
49063;BME280;34876;51.464;-0.150;2022-08-19T19:04:18;101541.23;;;24.95;34.35
49063;BME280;34876;51.464;-0.150;2022-08-19T19:12:21;101549.42;;;25.11;44.37
49063;BME280;34876;51.464;-0.150;2022-08-19T19:20:38;101545.99;;;25.50;43.58
49063;BME280;34876;51.464;-0.150;2022-08-19T19:27:46;101552.78;;;25.60;43.33
49063;BME280;34876;51.464;-0.150;2022-08-19T19:35:29;101563.98;;;25.59;43.24
49063;BME280;34876;51.464;-0.150;2022-08-19T19:42:49;101575.28;;;25.52;43.29
49063;BME280;34876;51.464;-0.150;2022-08-19T19:50:39;101582.47;;;25.54;43.22
49063;BME280;34876;51.464;-0.150;2022-08-19T19:58:07;101590.57;;;25.58;43.00
49063;BME280;34876;51.464;-0.150;2022-08-19T20:06:27;101597.63;;;25.59;42.90
49063;BME280;34876;51.464;-0.150;2022-08-19T20:14:04;101603.41;;;25.59;42.79
49063;BME280;34876;51.464;-0.150;2022-08-19T20:21:53;101605.13;;;25.57;42.76
49063;BME280;34876;51.464;-0.150;2022-08-19T20:29:02;101611.63;;;25.57;42.71
49063;BME280;34876;51.464;-0.150;2022-08-19T20:36:31;101620.81;;;25.54;42.60
49063;BME280;34876;51.464;-0.150;2022-08-19T20:44:57;101629.79;;;25.53;42.62
49063;BME280;34876;51.464;-0.150;2022-08-19T20:51:22;101634.68;;;25.54;42.39
49063;BME280;34876;51.464;-0.150;2022-08-19T20:59:06;101635.72;;;25.52;42.45
49063;BME280;34876;51.464;-0.150;2022-08-19T21:06:59;101645.13;;;25.54;42.29
49063;BME280;34876;51.464;-0.150;2022-08-19T21:14:22;101653.29;;;25.55;42.23
49063;BME280;34876;51.464;-0.150;2022-08-19T21:22:43;101651.10;;;25.48;42.24
49063;BME280;34876;51.464;-0.150;2022-08-19T21:30:09;101650.21;;;25.49;42.22
49063;BME280;34876;51.464;-0.150;2022-08-19T21:38:09;101653.13;;;25.50;42.11
49063;BME280;34876;51.464;-0.150;2022-08-19T21:45:19;101655.23;;;25.47;42.12
49063;BME280;34876;51.464;-0.150;2022-08-19T21:52:49;101649.94;;;25.48;42.06
49063;BME280;34876;51.464;-0.150;2022-08-19T22:00:39;101654.19;;;25.49;41.99
49063;BME280;34876;51.464;-0.150;2022-08-19T22:09:09;101664.34;;;25.46;42.01
49063;BME280;34876;51.464;-0.150;2022-08-19T22:17:53;101674.70;;;25.46;41.81
49063;BME280;34876;51.464;-0.150;2022-08-19T22:25:13;101682.02;;;25.43;41.88
49063;BME280;34876;51.464;-0.150;2022-08-19T22:32:51;101687.67;;;25.43;41.90
49063;BME280;34876;51.464;-0.150;2022-08-19T22:40:13;101694.48;;;25.42;41.82
49063;BME280;34876;51.464;-0.150;2022-08-19T22:47:23;101699.94;;;25.41;41.82
49063;BME280;34876;51.464;-0.150;2022-08-19T22:55:10;101709.73;;;25.38;41.85
49063;BME280;34876;51.464;-0.150;2022-08-19T23:03:28;101711.44;;;25.38;41.76
49063;BME280;34876;51.464;-0.150;2022-08-19T23:11:18;101703.71;;;25.33;41.75
49063;BME280;34876;51.464;-0.150;2022-08-19T23:19:33;101709.75;;;25.34;41.60
49063;BME280;34876;51.464;-0.150;2022-08-19T23:27:03;101706.34;;;25.32;41.57
49063;BME280;34876;51.464;-0.150;2022-08-19T23:34:51;101709.83;;;25.29;41.68
49063;BME280;34876;51.464;-0.150;2022-08-19T23:42:33;101704.25;;;25.28;41.59
49063;BME280;34876;51.464;-0.150;2022-08-19T23:51:11;101700.70;;;25.25;41.58
49063;BME280;34876;51.464;-0.150;2022-08-19T23:59:19;101702.81;;;25.23;41.53
